Hlavní strana
METAR-TAF:

METAR-TAF

Letiště :

Ancona, Itálie

zeměpisná šířka: 43-37N, zeměpisná délka: 013-22E, výška: 12 m

Aktuální stav počasí

Zpráva byla vytvořena před 1 hodinou a 4 minutami, v 14:50 UTC
Východní vítr 5 kt, proměnlivý mezi severovýchodním a jihovýchodním
Teplota 14°C
Vlhkost vzduchu 47%
Tlak 1024 hPa
Viditelnost 10 km a více
Polojasno ve výšce 4000 ft

METAR: LIPY 161450Z 08005KT 040V140 9999 SCT040 14/03 Q1024

Čas: 16:54 (15:54 UTC)

Předpověď počasí

Zpráva byla vytvořena před 4 hodinami a 54 minutami, v 11:00 UTC
Předpověď platná od 16 v 12 UTC do 17 v 12 UTC
Východoseverovýchodní vítr 12 kt
Viditelnost 10 km a více
Polojasno ve výšce 4000 ft

TAF: LIPY 161100Z 1612/1712 06012KT 9999 SCT040

Stav a předpovědi počasí z více než 4 000 letišť (zprávy METAR a TAF).

Červené a žluté tečky na mapě představují dostupné meteorologické stanice.

Když kurzor umístíte na tečku, zobrazí se název stanice.

Pak kliknutím zobrazíte stav a předpověď počasí.

Chcete-li změnit mapu, kliknutím na zelené tlačítko se znaménkem +mapu přiblížíte, kliknutím na zelené tlačítko se znaménkem – mapu oddálíte a kliknutím na zelené šipky přejdete na sousední mapy.


METAR-TAF: